Time;durP1;ratioP1;P1;durP2;ratioP2;P2;SDS_P1;SDS_P2;PMS_P1;PMS_P2;Temp;Humidity;BMP_temperature;BMP_pressure;BME280_temperature;BME280_humidity;BME280_pressure;Samples;Min_cycle;Max_cycle;Signal;HPM_P1;HPM_P2
2022/01/21 00:01:56;;;;;;;8.63;2.67;;;;;;;-2.52;69.68;99387.53;4130749;28;22094;-66
2022/01/21 00:04:22;;;;;;;6.23;1.97;;;;;;;-2.55;69.50;99400.72;4142730;28;20293;-69
2022/01/21 00:06:49;;;;;;;7.53;2.27;;;;;;;-2.60;70.13;99400.13;4145742;28;23235;-69
2022/01/21 00:09:16;;;;;;;9.63;1.87;;;;;;;-2.60;69.48;99397.53;4160031;28;20240;-68
2022/01/21 00:11:42;;;;;;;8.23;2.03;;;;;;;-2.69;70.51;99398.91;4154009;28;20239;-69
2022/01/21 00:14:10;;;;;;;6.37;2.10;;;;;;;-2.67;70.40;99407.47;4164960;28;20235;-70
2022/01/21 00:16:38;;;;;;;7.93;1.90;;;;;;;-2.62;69.38;99404.63;4154366;28;20231;-68
2022/01/21 00:19:12;;;;;;;9.03;2.27;;;;;;;-2.64;70.01;99412.50;4162459;28;20234;-69
2022/01/21 00:30:16;;;;;;;10.00;2.50;;;;;;;-2.63;70.33;99427.19;4183334;28;20246;-67
2022/01/21 00:32:45;;;;;;;11.60;2.77;;;;;;;-2.67;70.59;99425.69;4150626;28;23462;-70
2022/01/21 00:35:12;;;;;;;9.30;1.93;;;;;;;-2.68;70.00;99429.22;4136467;28;20305;-69
2022/01/21 00:37:39;;;;;;;12.60;3.20;;;;;;;-2.65;69.92;99433.41;4161395;28;20238;-67
2022/01/21 00:40:10;;;;;;;9.13;2.30;;;;;;;-2.66;70.49;99435.19;4150693;28;22453;-69
2022/01/21 00:45:11;;;;;;;7.53;1.90;;;;;;;-2.74;69.43;99429.53;4146133;28;23702;-68
2022/01/21 00:47:38;;;;;;;8.23;2.50;;;;;;;-2.67;69.90;99428.31;4147844;28;20335;-71
2022/01/21 00:50:05;;;;;;;10.70;2.50;;;;;;;-2.67;68.92;99425.69;4140472;28;20262;-67
2022/01/21 00:52:32;;;;;;;9.70;2.30;;;;;;;-2.71;69.27;99444.19;4147312;28;20341;-68
2022/01/21 00:54:59;;;;;;;7.73;2.17;;;;;;;-2.83;69.34;99432.69;4164337;28;20412;-68
2022/01/21 00:57:26;;;;;;;9.13;2.10;;;;;;;-2.78;69.52;99441.06;4157446;28;20247;-68
2022/01/21 00:59:52;;;;;;;10.47;1.83;;;;;;;-2.80;69.04;99432.50;4158031;28;22701;-70
2022/01/21 01:02:19;;;;;;;5.97;2.03;;;;;;;-2.81;68.96;99426.47;4139790;28;20909;-69
2022/01/21 01:04:45;;;;;;;8.83;2.20;;;;;;;-2.85;69.07;99431.94;4153766;28;20242;-68
2022/01/21 01:07:12;;;;;;;7.30;2.30;;;;;;;-2.95;69.35;99431.59;4142829;28;20308;-69
2022/01/21 01:09:41;;;;;;;6.87;2.10;;;;;;;-2.89;69.17;99426.03;4156578;29;20239;-68
2022/01/21 01:12:19;;;;;;;10.13;1.90;;;;;;;-2.87;68.40;99423.38;4149559;28;20392;-70
2022/01/21 01:20:16;;;;;;;4.53;1.83;;;;;;;-3.03;69.75;99421.59;4141861;28;20259;-67
2022/01/21 01:22:54;;;;;;;4.97;1.60;;;;;;;-2.97;69.08;99430.84;4155612;28;20234;-68
2022/01/21 01:28:07;;;;;;;9.13;2.00;;;;;;;-2.93;69.85;99432.34;4165484;28;23178;-67
2022/01/21 01:30:35;;;;;;;9.80;1.67;;;;;;;-2.99;69.27;99417.91;4177743;28;20296;-68
2022/01/21 01:33:05;;;;;;;6.93;1.90;;;;;;;-2.94;69.21;99425.47;4166542;28;25551;-68
2022/01/21 01:35:35;;;;;;;8.13;1.80;;;;;;;-2.94;69.67;99427.22;4153844;28;20463;-69
2022/01/21 01:40:45;;;;;;;7.97;1.70;;;;;;;-2.94;70.13;99415.06;4151019;28;20340;-67
2022/01/21 01:51:17;;;;;;;5.53;1.47;;;;;;;-2.86;69.05;99410.25;4146797;28;20243;-70
2022/01/21 01:53:57;;;;;;;6.03;1.43;;;;;;;-2.83;68.81;99414.47;4167407;28;20247;-70
2022/01/21 01:56:29;;;;;;;11.07;2.37;;;;;;;-2.84;68.93;99420.59;4156685;28;20285;-67
2022/01/21 01:58:56;;;;;;;7.80;1.70;;;;;;;-2.88;69.68;99421.66;4144134;28;20238;-68
2022/01/21 02:01:22;;;;;;;8.87;2.10;;;;;;;-2.88;69.65;99408.66;4153759;28;23087;-68
2022/01/21 02:03:49;;;;;;;9.50;1.80;;;;;;;-2.86;70.33;99417.22;4151194;28;20241;-68
2022/01/21 02:06:16;;;;;;;8.13;2.00;;;;;;;-2.78;68.39;99417.66;4165917;28;20233;-69
2022/01/21 02:08:42;;;;;;;7.60;1.50;;;;;;;-2.82;69.04;99409.16;4145627;28;21813;-69
2022/01/21 02:11:09;;;;;;;5.23;1.43;;;;;;;-2.81;69.15;99405.66;4167576;28;20242;-68
2022/01/21 02:13:42;;;;;;;5.63;1.50;;;;;;;-2.78;68.67;99420.25;4143900;28;21321;-67
2022/01/21 02:16:31;;;;;;;6.03;1.50;;;;;;;-2.82;68.86;99410.94;4154176;28;20246;-67
2022/01/21 02:21:46;;;;;;;6.67;2.03;;;;;;;-2.83;69.77;99401.44;4158157;28;22118;-68
2022/01/21 02:24:23;;;;;;;4.87;1.60;;;;;;;-2.89;70.03;99410.41;4133641;28;21628;-68
2022/01/21 02:26:51;;;;;;;5.93;1.57;;;;;;;-2.88;70.34;99404.31;4146405;28;21048;-68
2022/01/21 02:29:38;;;;;;;6.60;1.40;;;;;;;-2.87;70.88;99405.13;4154897;28;20243;-70
2022/01/21 02:32:04;;;;;;;4.33;1.30;;;;;;;-3.04;71.80;99401.72;4150212;28;20382;-69
2022/01/21 02:34:32;;;;;;;4.37;1.43;;;;;;;-3.07;73.37;99394.06;4140532;28;20412;-68
2022/01/21 02:36:58;;;;;;;6.33;1.67;;;;;;;-3.25;75.28;99389.88;4148514;28;25072;-70
2022/01/21 02:39:25;;;;;;;6.13;1.50;;;;;;;-3.36;76.36;99402.63;4149769;28;20282;-67
2022/01/21 02:41:52;;;;;;;4.67;1.63;;;;;;;-3.37;77.10;99406.13;4153381;28;21187;-70
2022/01/21 02:44:18;;;;;;;5.27;1.27;;;;;;;-3.32;77.50;99409.34;4137111;28;20338;-71
2022/01/21 02:46:47;;;;;;;6.67;1.40;;;;;;;-3.38;77.46;99415.69;4162510;28;20243;-70
2022/01/21 02:49:14;;;;;;;6.20;1.73;;;;;;;-3.40;77.65;99407.97;4149559;28;21229;-67
2022/01/21 02:51:41;;;;;;;10.17;1.97;;;;;;;-3.35;77.73;99414.69;4147191;28;20239;-67
2022/01/21 02:54:08;;;;;;;7.83;1.70;;;;;;;-3.41;78.19;99401.09;4138329;28;23667;-68
2022/01/21 02:56:36;;;;;;;8.67;1.83;;;;;;;-3.36;78.34;99407.81;4138943;28;20923;-68
2022/01/21 02:59:04;;;;;;;4.97;1.30;;;;;;;-3.48;78.69;99404.94;4151782;28;20266;-70
2022/01/21 03:01:33;;;;;;;5.53;1.50;;;;;;;-3.49;78.52;99408.50;4155085;28;20333;-67
2022/01/21 03:04:01;;;;;;;9.43;1.80;;;;;;;-3.59;78.98;99404.69;4156457;28;25833;-68
2022/01/21 03:06:28;;;;;;;11.10;1.60;;;;;;;-3.55;78.83;99411.41;4146931;28;20412;-69
2022/01/21 03:09:00;;;;;;;7.90;2.03;;;;;;;-3.59;78.59;99412.47;4147781;28;20342;-68
2022/01/21 03:11:27;;;;;;;5.30;1.53;;;;;;;-3.63;78.78;99405.75;4145240;28;20322;-67
2022/01/21 03:13:55;;;;;;;5.03;1.40;;;;;;;-3.61;78.39;99404.78;4146706;28;20239;-70
2022/01/21 03:16:22;;;;;;;6.43;1.47;;;;;;;-3.59;78.64;99417.69;4156816;28;21838;-68
2022/01/21 03:18:49;;;;;;;8.63;1.60;;;;;;;-3.56;78.46;99412.31;4132510;28;21228;-67
2022/01/21 03:21:16;;;;;;;6.50;1.90;;;;;;;-3.69;79.03;99400.91;4140494;28;21204;-68
2022/01/21 03:23:46;;;;;;;4.00;1.50;;;;;;;-3.64;78.78;99404.91;4130870;28;21983;-70
2022/01/21 03:26:21;;;;;;;9.00;2.00;;;;;;;-3.67;79.31;99407.69;4166343;28;20234;-70
2022/01/21 03:28:49;;;;;;;9.63;1.80;;;;;;;-3.64;79.31;99414.47;4144740;28;20303;-67
2022/01/21 03:31:17;;;;;;;8.87;1.60;;;;;;;-3.66;79.08;99395.53;4136287;28;20323;-69
2022/01/21 03:33:45;;;;;;;13.90;1.80;;;;;;;-3.59;78.95;99412.47;4163696;28;20756;-69
2022/01/21 03:36:12;;;;;;;7.53;1.63;;;;;;;-3.55;79.17;99423.56;4150462;28;20365;-70
2022/01/21 03:38:38;;;;;;;12.97;2.20;;;;;;;-3.50;78.47;99421.56;4156647;28;26001;-71
2022/01/21 03:41:05;;;;;;;5.97;1.63;;;;;;;-3.46;78.95;99428.28;4148680;28;20652;-70
2022/01/21 03:43:33;;;;;;;6.10;1.53;;;;;;;-3.35;78.18;99420.72;4153887;28;20262;-70
2022/01/21 03:46:00;;;;;;;8.37;1.60;;;;;;;-3.37;78.11;99426.94;4148171;28;20258;-69
2022/01/21 03:48:27;;;;;;;8.60;1.60;;;;;;;-3.35;78.13;99422.50;4148463;28;20520;-69
2022/01/21 03:50:54;;;;;;;4.63;1.63;;;;;;;-3.32;78.11;99427.56;4140049;28;21245;-70
2022/01/21 03:53:20;;;;;;;6.00;1.63;;;;;;;-3.26;77.84;99435.00;4151287;28;20226;-68
2022/01/21 03:55:47;;;;;;;9.73;1.67;;;;;;;-3.28;77.65;99416.03;4171115;28;21362;-69
2022/01/21 03:58:14;;;;;;;3.40;1.17;;;;;;;-3.24;77.89;99404.56;4147340;28;20239;-69
2022/01/21 04:00:46;;;;;;;4.87;1.57;;;;;;;-3.23;77.94;99419.22;4134872;28;20230;-69
2022/01/21 04:03:12;;;;;;;4.63;1.60;;;;;;;-3.25;77.94;99429.75;4157265;28;20296;-69
2022/01/21 04:05:40;;;;;;;6.53;1.40;;;;;;;-3.21;78.01;99426.06;4152455;28;24350;-68
2022/01/21 04:08:08;;;;;;;11.43;1.53;;;;;;;-3.22;78.96;99436.53;4150031;28;20248;-69
2022/01/21 04:10:35;;;;;;;7.33;1.60;;;;;;;-3.22;79.03;99432.16;4147809;28;20413;-69
2022/01/21 04:13:03;;;;;;;7.40;1.47;;;;;;;-3.24;79.20;99431.41;4142143;28;20246;-68
2022/01/21 04:15:29;;;;;;;8.13;1.40;;;;;;;-3.22;78.90;99436.53;4150262;28;20230;-70
2022/01/21 04:17:56;;;;;;;4.93;1.10;;;;;;;-3.13;78.31;99441.25;4159023;28;20242;-69
2022/01/21 04:20:22;;;;;;;9.37;1.53;;;;;;;-3.14;78.24;99429.13;4163144;28;20240;-69
2022/01/21 04:22:49;;;;;;;6.27;1.30;;;;;;;-3.08;78.65;99446.19;4143462;28;20262;-69
2022/01/21 04:25:15;;;;;;;5.10;1.10;;;;;;;-3.01;78.15;99439.75;4156518;28;20322;-68
2022/01/21 04:27:42;;;;;;;7.83;1.60;;;;;;;-2.98;77.65;99437.78;4152773;28;22031;-69
2022/01/21 04:30:09;;;;;;;6.53;1.40;;;;;;;-2.93;77.84;99447.13;4159371;28;20238;-71
2022/01/21 04:32:36;;;;;;;4.57;1.10;;;;;;;-2.86;77.23;99443.25;4149844;28;20238;-69
2022/01/21 04:35:02;;;;;;;4.37;1.20;;;;;;;-2.85;77.07;99450.16;4150693;28;20238;-71
2022/01/21 04:37:29;;;;;;;8.67;1.63;;;;;;;-2.79;76.73;99452.41;4145425;28;21789;-70
2022/01/21 04:40:04;;;;;;;5.00;1.40;;;;;;;-2.78;76.96;99448.88;4152783;28;25096;-68
2022/01/21 04:48:01;;;;;;;2.57;1.00;;;;;;;-2.72;76.24;99450.31;4149701;28;20223;-68
2022/01/21 04:50:28;;;;;;;5.80;1.30;;;;;;;-2.67;76.58;99462.16;4146295;28;20222;-67
2022/01/21 04:52:54;;;;;;;8.47;1.70;;;;;;;-2.63;76.44;99455.84;4151651;28;22800;-68
2022/01/21 04:55:20;;;;;;;16.00;3.70;;;;;;;-2.61;76.40;99448.78;4150146;28;20269;-67
2022/01/21 04:57:47;;;;;;;20.30;5.33;;;;;;;-2.56;75.98;99474.56;4164482;28;21786;-68
2022/01/21 05:00:14;;;;;;;23.97;6.17;;;;;;;-2.53;76.20;99468.34;4159668;28;20230;-71
2022/01/21 05:02:40;;;;;;;12.23;3.20;;;;;;;-2.55;76.71;99464.06;4136912;28;20244;-67
2022/01/21 05:05:08;;;;;;;7.17;1.93;;;;;;;-2.56;76.88;99462.38;4127265;28;20231;-67
2022/01/21 05:07:38;;;;;;;9.00;2.23;;;;;;;-2.52;76.58;99457.84;4158129;28;20687;-69
2022/01/21 05:10:05;;;;;;;8.73;1.90;;;;;;;-2.57;77.63;99460.72;4143829;28;20239;-71
2022/01/21 05:12:32;;;;;;;8.07;1.60;;;;;;;-2.55;77.26;99461.47;4144391;28;21280;-69
2022/01/21 05:17:26;;;;;;;5.00;1.60;;;;;;;-2.41;77.06;99465.03;4128049;28;20244;-68
2022/01/21 05:19:53;;;;;;;6.20;1.60;;;;;;;-2.40;76.39;99477.97;4127128;28;20476;-69
2022/01/21 05:22:19;;;;;;;9.63;2.17;;;;;;;-2.40;76.60;99477.16;4133963;28;21201;-69
2022/01/21 05:24:46;;;;;;;6.93;2.00;;;;;;;-2.47;77.46;99479.25;4147865;28;26381;-69
2022/01/21 05:27:13;;;;;;;8.13;1.77;;;;;;;-2.40;76.87;99480.59;4131540;28;21514;-67
2022/01/21 05:29:40;;;;;;;8.97;2.80;;;;;;;-2.37;76.93;99471.75;4142835;28;22270;-67
2022/01/21 05:32:08;;;;;;;16.23;4.63;;;;;;;-2.40;77.30;99484.97;4137581;28;22916;-69
2022/01/21 05:34:34;;;;;;;10.90;2.80;;;;;;;-2.48;77.48;99482.81;4129704;29;21309;-68
2022/01/21 05:37:07;;;;;;;8.07;1.90;;;;;;;-2.45;77.29;99481.78;4141480;28;20254;-68
2022/01/21 05:39:34;;;;;;;9.97;2.40;;;;;;;-2.47;77.70;99481.88;4124814;28;21523;-69
2022/01/21 05:42:02;;;;;;;3.17;1.30;;;;;;;-2.40;77.32;99490.19;4144996;28;20235;-70
2022/01/21 05:46:59;;;;;;;8.40;1.73;;;;;;;-2.34;77.18;99501.09;4128789;28;20246;-67
2022/01/21 05:49:28;;;;;;;8.77;1.50;;;;;;;-2.36;77.08;99494.31;4144154;28;20336;-72
2022/01/21 05:52:16;;;;;;;9.83;2.03;;;;;;;-2.38;77.58;99498.75;4149631;29;24762;-68
2022/01/21 05:54:45;;;;;;;7.10;1.73;;;;;;;-2.47;77.69;99488.84;4129130;28;21122;-69
2022/01/21 05:57:14;;;;;;;6.13;1.77;;;;;;;-2.43;77.52;99487.75;4139901;28;20414;-67
2022/01/21 05:59:41;;;;;;;10.37;3.27;;;;;;;-2.46;77.71;99495.72;4152364;28;20285;-68
2022/01/21 06:02:08;;;;;;;16.80;2.20;;;;;;;-2.43;77.52;99499.00;4129386;28;20231;-67
2022/01/21 06:04:37;;;;;;;5.10;1.77;;;;;;;-2.39;77.43;99499.66;4138908;28;20239;-68
2022/01/21 06:07:07;;;;;;;8.27;2.00;;;;;;;-2.34;77.33;99500.25;4142448;28;20867;-67
2022/01/21 06:09:34;;;;;;;5.23;1.93;;;;;;;-2.29;77.05;99510.44;4148869;28;20320;-69
2022/01/21 06:12:01;;;;;;;6.13;2.00;;;;;;;-2.25;76.81;99512.75;4155107;28;23067;-67
2022/01/21 06:14:27;;;;;;;8.37;2.40;;;;;;;-2.18;76.99;99508.91;4162109;28;20983;-67
2022/01/21 06:16:54;;;;;;;10.80;3.17;;;;;;;-2.14;76.84;99510.38;4151025;28;20255;-70
2022/01/21 06:19:21;;;;;;;16.73;4.37;;;;;;;-2.08;76.74;99511.81;4157892;28;20991;-69
2022/01/21 06:21:47;;;;;;;6.87;1.87;;;;;;;-2.01;76.66;99520.13;4150102;28;20242;-68
2022/01/21 06:24:19;;;;;;;7.57;2.43;;;;;;;-2.04;76.65;99515.06;4137373;28;20234;-67
2022/01/21 06:26:46;;;;;;;18.90;2.27;;;;;;;-2.02;76.93;99523.63;4140071;28;20235;-68
2022/01/21 06:29:13;;;;;;;5.73;2.10;;;;;;;-2.13;77.16;99509.47;4150740;28;22170;-68
2022/01/21 06:31:39;;;;;;;7.87;2.10;;;;;;;-2.08;76.61;99503.13;4149239;29;23074;-69
2022/01/21 06:34:07;;;;;;;5.37;1.80;;;;;;;-2.16;77.49;99514.84;4139703;28;20981;-69
2022/01/21 06:36:39;;;;;;;5.30;1.87;;;;;;;-2.15;77.36;99529.56;4163125;28;20225;-69
2022/01/21 06:39:07;;;;;;;5.40;1.93;;;;;;;-2.19;78.09;99530.66;4157206;28;20231;-69
2022/01/21 06:41:34;;;;;;;4.47;2.03;;;;;;;-2.14;77.61;99536.44;4145943;28;20872;-67
2022/01/21 06:44:01;;;;;;;9.70;2.00;;;;;;;-2.17;77.92;99544.44;4145331;28;20234;-69
2022/01/21 06:46:28;;;;;;;6.60;2.00;;;;;;;-2.15;78.14;99542.59;4158884;28;20298;-67
2022/01/21 06:48:55;;;;;;;5.93;1.83;;;;;;;-2.07;77.89;99549.13;4160633;28;20402;-69
2022/01/21 06:51:22;;;;;;;8.37;2.77;;;;;;;-2.11;78.18;99543.25;4146930;28;20242;-68
2022/01/21 06:53:48;;;;;;;4.97;1.87;;;;;;;-2.06;77.87;99542.97;4177271;28;21698;-68
2022/01/21 06:56:15;;;;;;;8.80;2.00;;;;;;;-2.04;77.73;99543.75;4157629;28;23012;-70
2022/01/21 06:58:42;;;;;;;11.07;2.10;;;;;;;-2.12;77.79;99547.63;4184957;28;20233;-68
2022/01/21 07:01:08;;;;;;;10.73;2.50;;;;;;;-2.15;77.98;99553.00;4167779;28;20670;-66
2022/01/21 07:03:35;;;;;;;5.40;1.97;;;;;;;-2.14;78.12;99557.28;4200949;28;21383;-68
2022/01/21 07:06:02;;;;;;;8.60;2.37;;;;;;;-2.16;78.19;99553.94;4193999;28;22192;-68
2022/01/21 07:08:33;;;;;;;10.17;2.53;;;;;;;-2.12;77.72;99568.47;4161134;28;20312;-66
2022/01/21 07:11:00;;;;;;;8.90;2.40;;;;;;;-2.23;78.51;99565.63;4176048;29;20859;-67
2022/01/21 07:13:26;;;;;;;12.77;3.90;;;;;;;-2.22;78.38;99562.09;4166629;29;20549;-68
2022/01/21 07:15:53;;;;;;;11.63;3.03;;;;;;;-2.20;78.06;99573.28;4156980;28;20231;-66
2022/01/21 07:18:20;;;;;;;11.17;3.10;;;;;;;-2.26;78.51;99567.56;4163309;28;20244;-67
2022/01/21 07:20:46;;;;;;;11.07;2.77;;;;;;;-2.29;78.45;99579.00;4153702;28;20545;-66
2022/01/21 07:23:13;;;;;;;8.43;2.50;;;;;;;-2.26;78.63;99583.22;4177175;28;21747;-67
2022/01/21 07:25:39;;;;;;;8.27;2.37;;;;;;;-2.16;78.12;99590.41;4152942;28;21566;-66
2022/01/21 07:28:09;;;;;;;7.27;2.43;;;;;;;-2.19;77.77;99582.78;4149905;28;20314;-66
2022/01/21 07:30:36;;;;;;;10.87;2.10;;;;;;;-2.20;77.82;99582.84;4162059;28;20241;-69
2022/01/21 07:33:03;;;;;;;8.17;2.60;;;;;;;-2.22;78.09;99588.16;4154102;28;20247;-67
2022/01/21 07:35:29;;;;;;;9.10;2.90;;;;;;;-2.17;77.75;99583.53;4211973;29;20429;-66
2022/01/21 07:38:09;;;;;;;9.97;3.00;;;;;;;-2.22;77.96;99589.94;4216513;28;21843;-70
2022/01/21 07:40:35;;;;;;;6.53;2.63;;;;;;;-2.20;77.67;99588.06;4146300;28;20272;-72
2022/01/21 07:43:03;;;;;;;9.83;3.00;;;;;;;-2.20;77.67;99594.13;4132515;28;21026;-67
2022/01/21 07:45:30;;;;;;;9.87;3.03;;;;;;;-2.08;76.34;99603.03;4182593;28;20241;-69
2022/01/21 07:47:56;;;;;;;8.83;2.33;;;;;;;-2.00;75.77;99590.41;4158825;28;20304;-68
2022/01/21 07:50:27;;;;;;;8.07;2.20;;;;;;;-2.01;75.46;99599.16;4152488;28;20243;-66
2022/01/21 07:52:54;;;;;;;11.13;2.83;;;;;;;-1.94;74.54;99599.66;4152268;28;21354;-67
2022/01/21 07:55:21;;;;;;;8.77;2.70;;;;;;;-1.91;74.60;99596.88;4164815;28;20424;-65
2022/01/21 07:57:47;;;;;;;7.90;2.33;;;;;;;-1.86;73.83;99578.38;4171881;28;21263;-69
2022/01/21 08:00:14;;;;;;;8.53;2.30;;;;;;;-1.76;73.22;99598.59;4157058;28;20237;-69
2022/01/21 08:02:41;;;;;;;7.67;2.60;;;;;;;-1.64;72.93;99606.66;4169699;28;20246;-70
2022/01/21 08:05:08;;;;;;;5.10;2.30;;;;;;;-1.67;72.16;99610.28;4163390;28;20253;-68
2022/01/21 08:07:35;;;;;;;5.63;2.20;;;;;;;-1.66;71.97;99600.69;4158393;28;20222;-68
2022/01/21 08:10:02;;;;;;;4.77;2.07;;;;;;;-1.65;72.25;99604.97;4175925;28;20233;-67
2022/01/21 08:12:29;;;;;;;6.43;1.93;;;;;;;-1.61;71.89;99606.50;4161410;28;20232;-69
2022/01/21 08:14:56;;;;;;;9.27;2.03;;;;;;;-1.57;71.94;99602.75;4142490;28;21713;-70
2022/01/21 08:17:23;;;;;;;7.60;2.30;;;;;;;-1.51;71.78;99602.41;4233698;28;20375;-68
2022/01/21 08:19:50;;;;;;;8.67;1.80;;;;;;;-1.37;70.71;99625.94;4178981;28;20330;-69
2022/01/21 08:22:17;;;;;;;8.37;2.13;;;;;;;-1.17;69.75;99605.66;4172188;29;20239;-69
2022/01/21 08:24:43;;;;;;;7.63;2.03;;;;;;;-0.94;69.11;99607.72;4173200;28;20237;-72
2022/01/21 08:27:10;;;;;;;7.87;2.03;;;;;;;-0.87;68.49;99618.63;4221751;28;20258;-69
2022/01/21 08:29:37;;;;;;;3.60;1.77;;;;;;;-0.86;68.30;99626.38;4150850;28;22465;-71
2022/01/21 08:32:04;;;;;;;9.70;2.10;;;;;;;-0.96;69.00;99620.06;4141729;28;23103;-69
2022/01/21 08:34:34;;;;;;;6.33;1.93;;;;;;;-0.93;68.77;99614.63;4153136;28;21052;-70
2022/01/21 08:37:02;;;;;;;5.53;2.20;;;;;;;-0.87;68.63;99629.09;4162023;28;20246;-69
2022/01/21 08:39:30;;;;;;;4.40;1.90;;;;;;;-0.92;68.19;99631.97;4163637;28;21075;-70
2022/01/21 08:41:56;;;;;;;8.07;2.17;;;;;;;-0.97;68.74;99639.25;4164129;28;20238;-69
2022/01/21 08:44:23;;;;;;;6.17;1.90;;;;;;;-0.86;67.69;99642.06;4172555;28;20226;-71
2022/01/21 08:46:50;;;;;;;5.43;1.80;;;;;;;-0.79;67.34;99641.72;4248552;28;20233;-69
2022/01/21 08:49:36;;;;;;;5.33;1.80;;;;;;;-0.74;66.81;99652.72;4236380;28;20887;-70
2022/01/21 08:52:03;;;;;;;6.07;1.77;;;;;;;-0.80;66.97;99655.69;4202743;28;20416;-70
2022/01/21 08:54:30;;;;;;;5.60;1.90;;;;;;;-0.79;66.97;99663.44;4152891;28;20237;-73
2022/01/21 08:56:56;;;;;;;9.20;1.93;;;;;;;-0.88;67.49;99654.38;4142305;28;20571;-69
2022/01/21 08:59:26;;;;;;;9.63;2.60;;;;;;;-0.87;68.02;99656.06;4140654;28;20304;-71
2022/01/21 09:01:53;;;;;;;11.80;2.40;;;;;;;-0.88;67.71;99670.03;4145608;28;20238;-69
2022/01/21 09:04:20;;;;;;;8.40;2.10;;;;;;;-0.82;68.10;99670.59;4159101;28;20791;-70
2022/01/21 09:06:47;;;;;;;6.27;2.10;;;;;;;-0.76;68.26;99667.63;4154318;28;22902;-70
2022/01/21 09:09:14;;;;;;;6.73;1.93;;;;;;;-0.77;67.75;99677.25;4149607;29;22862;-70
2022/01/21 09:11:41;;;;;;;7.03;2.37;;;;;;;-0.81;67.78;99669.69;4152171;28;20291;-71
2022/01/21 09:14:07;;;;;;;8.77;2.63;;;;;;;-0.90;68.10;99679.72;4157692;28;20238;-70
2022/01/21 09:16:34;;;;;;;7.43;2.53;;;;;;;-0.93;68.56;99681.69;4158307;28;20251;-71
2022/01/21 09:19:03;;;;;;;8.43;2.50;;;;;;;-1.00;68.70;99676.00;4173176;28;20238;-72
2022/01/21 09:21:36;;;;;;;7.10;2.47;;;;;;;-0.94;68.79;99685.22;4216585;28;20239;-70
2022/01/21 09:24:07;;;;;;;7.13;2.30;;;;;;;-0.94;68.93;99680.84;4178918;29;21330;-72
2022/01/21 09:26:34;;;;;;;7.03;2.63;;;;;;;-0.89;68.57;99681.44;4181170;28;20292;-71
2022/01/21 09:29:03;;;;;;;9.50;2.30;;;;;;;-0.91;68.75;99680.69;4177341;28;21773;-69
2022/01/21 09:31:30;;;;;;;10.37;2.80;;;;;;;-0.92;69.25;99676.38;4137720;28;25191;-70
2022/01/21 09:34:17;;;;;;;10.93;3.13;;;;;;;-0.82;68.24;99683.66;4151278;28;23490;-70
2022/01/21 09:38:20;;;;;;;10.23;2.53;;;;;;;-0.90;68.84;99686.72;4349656;27;20536;-70
2022/01/21 09:40:49;;;;;;;7.47;2.60;;;;;;;-0.91;69.31;99679.84;4302907;27;20974;-70
2022/01/21 09:43:17;;;;;;;8.73;2.20;;;;;;;-0.89;69.10;99678.81;4251378;28;20243;-69
2022/01/21 09:45:51;;;;;;;7.70;2.23;;;;;;;-0.91;68.53;99688.50;4257805;28;20675;-68
2022/01/21 09:48:25;;;;;;;5.77;2.50;;;;;;;-0.97;68.61;99683.63;4246162;28;21615;-68
2022/01/21 09:50:54;;;;;;;11.97;3.20;;;;;;;-0.87;70.22;99684.78;4271608;28;20232;-72
2022/01/21 09:53:29;;;;;;;6.57;2.60;;;;;;;-0.89;68.43;99681.44;4255339;28;23708;-68
2022/01/21 09:55:57;;;;;;;10.37;3.30;;;;;;;-0.92;68.46;99673.75;4267632;28;20241;-66
2022/01/21 09:58:25;;;;;;;12.37;3.10;;;;;;;-0.80;67.75;99671.34;4274039;28;20395;-68
2022/01/21 10:00:53;;;;;;;14.57;4.13;;;;;;;-0.77;67.48;99692.06;4279112;28;20231;-68
2022/01/21 10:03:22;;;;;;;12.07;3.43;;;;;;;-0.80;67.61;99684.41;4278876;27;20229;-68
2022/01/21 10:05:49;;;;;;;13.27;3.70;;;;;;;-0.83;67.02;99667.16;4286545;28;20256;-69
2022/01/21 10:08:16;;;;;;;10.87;3.23;;;;;;;-0.89;67.18;99662.28;4294760;28;22942;-66
2022/01/21 10:10:44;;;;;;;12.37;3.67;;;;;;;-0.98;66.94;99648.03;4268457;27;20299;-71
2022/01/21 10:13:15;;;;;;;6.03;2.20;;;;;;;-1.02;66.88;99645.69;4274708;27;20364;-70
2022/01/21 10:15:42;;;;;;;14.03;3.40;;;;;;;-0.72;66.29;99645.63;4283690;28;21392;-69
2022/01/21 10:18:14;;;;;;;6.80;2.40;;;;;;;-0.43;64.86;99662.13;4278965;28;20237;-69
2022/01/21 10:21:01;;;;;;;7.97;2.40;;;;;;;0.26;64.67;99663.03;4251403;28;21973;-71
2022/01/21 10:23:29;;;;;;;9.90;2.07;;;;;;;0.51;66.30;99651.78;4266365;28;20253;-65
2022/01/21 10:26:18;;;;;;;4.50;2.00;;;;;;;0.33;62.38;99656.47;4275096;28;20601;-69
2022/01/21 10:28:54;;;;;;;7.83;2.90;;;;;;;0.38;62.53;99662.25;4251185;28;20258;-67
2022/01/21 10:31:21;;;;;;;9.13;3.20;;;;;;;0.48;61.24;99651.16;4269755;28;26077;-69
2022/01/21 10:33:53;;;;;;;11.67;3.70;;;;;;;0.33;64.28;99637.31;4277588;28;20700;-69
2022/01/21 10:36:27;;;;;;;11.77;3.50;;;;;;;0.24;61.92;99646.59;4295085;28;20251;-71
2022/01/21 10:39:07;;;;;;;14.20;5.33;;;;;;;0.25;62.67;99637.78;4261097;28;20909;-69
2022/01/21 10:41:38;;;;;;;34.43;10.43;;;;;;;0.25;63.00;99637.78;4251690;28;20732;-74
2022/01/21 10:44:11;;;;;;;20.03;7.00;;;;;;;0.36;61.93;99647.56;4261433;28;21202;-70
2022/01/21 10:46:39;;;;;;;5.03;2.30;;;;;;;0.23;61.99;99637.03;4268677;28;20265;-67
2022/01/21 10:49:08;;;;;;;8.57;2.10;;;;;;;0.30;61.71;99637.50;4245043;28;20242;-67
2022/01/21 10:51:40;;;;;;;9.70;2.23;;;;;;;0.26;61.95;99646.47;4274130;28;20234;-69
2022/01/21 10:54:31;;;;;;;7.27;1.97;;;;;;;0.48;61.45;99635.47;4299789;28;20226;-69
2022/01/21 10:57:17;;;;;;;6.83;2.20;;;;;;;0.50;61.48;99628.34;4296808;28;20238;-69
2022/01/21 10:59:49;;;;;;;7.80;2.83;;;;;;;0.48;60.95;99638.91;4273827;28;20225;-67
2022/01/21 11:02:34;;;;;;;7.70;1.97;;;;;;;0.30;60.82;99632.25;4305525;28;20810;-68
2022/01/21 11:05:13;;;;;;;9.47;2.10;;;;;;;0.24;60.52;99643.16;4255004;28;22189;-67
2022/01/21 11:08:10;;;;;;;10.80;2.20;;;;;;;0.14;61.25;99641.13;4236095;28;22968;-66
2022/01/21 11:10:39;;;;;;;4.47;1.90;;;;;;;0.09;60.84;99642.34;4263306;28;20739;-69
2022/01/21 11:13:11;;;;;;;5.40;2.37;;;;;;;0.09;61.41;99644.94;4289906;28;20261;-67
2022/01/21 11:15:43;;;;;;;8.93;2.30;;;;;;;-0.01;61.56;99655.16;4256742;28;21295;-66
2022/01/21 11:18:14;;;;;;;8.17;2.10;;;;;;;-0.10;61.57;99651.34;4272577;28;20238;-67
2022/01/21 11:20:43;;;;;;;6.03;1.80;;;;;;;-0.03;61.42;99655.25;4262704;28;21114;-67
2022/01/21 11:23:11;;;;;;;8.27;2.23;;;;;;;0.08;61.48;99646.72;4254195;28;20253;-65
2022/01/21 11:25:48;;;;;;;7.37;2.30;;;;;;;0.10;61.64;99657.09;4249993;28;20233;-67
2022/01/21 11:28:23;;;;;;;7.23;2.43;;;;;;;0.01;61.07;99652.47;4251558;28;20526;-64
2022/01/21 11:30:51;;;;;;;5.17;2.07;;;;;;;-0.17;61.63;99673.59;4263422;28;20278;-64
2022/01/21 11:33:18;;;;;;;8.47;2.17;;;;;;;-0.15;62.06;99652.56;4253124;28;21566;-63
2022/01/21 11:35:47;;;;;;;8.77;2.20;;;;;;;-0.23;62.61;99640.81;4262643;28;20265;-64
2022/01/21 11:38:16;;;;;;;4.50;2.10;;;;;;;-0.19;62.40;99638.84;4265231;28;20652;-65
2022/01/21 11:40:44;;;;;;;6.10;2.57;;;;;;;-0.31;61.56;99644.84;4281959;28;23262;-67
2022/01/21 11:43:11;;;;;;;8.27;3.00;;;;;;;-0.27;62.32;99655.00;4280950;28;20301;-65
2022/01/21 11:51:17;;;;;;;7.67;2.33;;;;;;;-0.31;62.73;99652.69;4281771;28;20486;-63
2022/01/21 11:53:45;;;;;;;9.50;2.00;;;;;;;-0.40;63.14;99654.09;4242738;28;20225;-66
2022/01/21 11:56:32;;;;;;;9.93;2.50;;;;;;;-0.24;63.19;99651.38;4257174;28;22946;-65
2022/01/21 11:59:25;;;;;;;9.50;2.30;;;;;;;-0.14;61.64;99644.66;4254248;28;20225;-67
2022/01/21 12:01:52;;;;;;;10.80;2.17;;;;;;;-0.27;62.52;99659.41;4246595;28;20318;-65
2022/01/21 12:04:39;;;;;;;12.10;2.73;;;;;;;-0.28;63.32;99653.34;4261726;28;20861;-67
2022/01/21 12:07:35;;;;;;;13.53;1.97;;;;;;;-0.22;63.04;99657.34;4236593;28;20236;-65
2022/01/21 12:10:09;;;;;;;15.17;2.43;;;;;;;-0.39;63.06;99662.78;4276101;28;21374;-65
2022/01/21 12:12:45;;;;;;;10.77;2.30;;;;;;;-0.49;62.89;99650.28;4251122;28;22272;-65
2022/01/21 12:15:33;;;;;;;11.53;2.77;;;;;;;-0.39;63.31;99674.09;4274956;28;20230;-64
2022/01/21 12:18:34;;;;;;;9.17;1.93;;;;;;;-0.43;63.33;99662.97;4268831;28;20249;-61
2022/01/21 12:21:06;;;;;;;5.67;1.87;;;;;;;-0.50;62.38;99666.88;4284107;28;20275;-63
2022/01/21 12:23:44;;;;;;;5.67;1.70;;;;;;;-0.60;62.37;99663.16;4220941;28;20320;-64
2022/01/21 12:26:11;;;;;;;8.67;1.90;;;;;;;-0.66;62.50;99660.91;4254805;28;21438;-66
2022/01/21 12:28:41;;;;;;;6.00;2.20;;;;;;;-0.77;63.26;99665.94;4247785;28;25500;-66
2022/01/21 12:31:09;;;;;;;5.53;2.03;;;;;;;-0.75;63.97;99669.28;4237303;28;20364;-66
2022/01/21 12:36:20;;;;;;;5.63;1.93;;;;;;;-0.64;63.83;99677.34;4246637;28;23053;-66